createdAt,value
2018-11-26T00:01:17.178Z,35.73
2018-11-26T00:03:46.443Z,34.30
2018-11-26T00:06:16.047Z,29.03
2018-11-26T00:08:46.033Z,29.00
2018-11-26T00:11:29.798Z,32.67
2018-11-26T00:13:59.626Z,31.37
2018-11-26T00:16:29.210Z,34.87
2018-11-26T00:18:58.931Z,31.17
2018-11-26T00:21:28.611Z,30.27
2018-11-26T00:23:58.659Z,30.57
2018-11-26T00:26:28.458Z,30.43
2018-11-26T00:28:57.774Z,32.30
2018-11-26T00:31:27.327Z,32.20
2018-11-26T00:33:56.682Z,33.10
2018-11-26T00:36:26.717Z,29.30
2018-11-26T00:38:56.402Z,33.73
2018-11-26T00:41:26.134Z,35.57
2018-11-26T00:43:55.908Z,35.20
2018-11-26T00:46:25.550Z,33.20
2018-11-26T00:48:55.189Z,33.13
2018-11-26T00:51:25.091Z,34.00
2018-11-26T00:53:54.670Z,35.80
2018-11-26T00:56:24.091Z,40.53
2018-11-26T00:58:54.176Z,32.90
2018-11-26T01:01:23.516Z,32.67
2018-11-26T01:03:52.859Z,35.00
2018-11-26T01:06:22.750Z,34.27
2018-11-26T01:08:52.479Z,30.70
2018-11-26T01:11:22.142Z,36.70
2018-11-26T01:13:51.855Z,32.33
2018-11-26T01:16:21.355Z,34.03
2018-11-26T01:18:50.944Z,33.53
2018-11-26T01:21:20.473Z,27.63
2018-11-26T01:23:50.264Z,34.67
2018-11-26T01:26:20.324Z,33.67
2018-11-26T01:28:50.055Z,30.70
2018-11-26T01:31:19.462Z,36.20
2018-11-26T01:33:48.822Z,36.03
2018-11-26T01:36:18.439Z,30.67
2018-11-26T01:38:48.450Z,33.03
2018-11-26T01:41:18.156Z,33.80
2018-11-26T01:43:47.856Z,35.80
2018-11-26T01:46:17.507Z,36.77
2018-11-26T01:48:47.080Z,37.07
2018-11-26T01:51:16.796Z,39.90
2018-11-26T01:53:46.830Z,42.93
2018-11-26T01:56:16.163Z,44.60
2018-11-26T01:58:45.904Z,39.00
2018-11-26T02:01:16.056Z,33.80
2018-11-26T02:03:45.451Z,37.87
2018-11-26T02:06:14.999Z,33.50
2018-11-26T02:08:44.982Z,34.63
2018-11-26T02:11:14.542Z,35.13
2018-11-26T02:13:44.295Z,34.80
2018-11-26T02:16:14.217Z,32.40
2018-11-26T02:18:43.990Z,34.67
2018-11-26T02:21:13.747Z,38.60
2018-11-26T02:23:43.663Z,35.47
2018-11-26T02:26:12.999Z,41.23
2018-11-26T02:28:42.565Z,42.17
2018-11-26T02:31:11.936Z,41.13
2018-11-26T02:33:41.311Z,37.30
2018-11-26T02:36:10.951Z,36.93
2018-11-26T02:38:40.807Z,38.57
2018-11-26T02:41:10.692Z,35.93
2018-11-26T02:43:40.670Z,38.07
2018-11-26T02:46:10.227Z,37.80
2018-11-26T02:48:39.743Z,34.27
2018-11-26T02:51:09.751Z,35.43
2018-11-26T02:53:39.305Z,31.17
2018-11-26T02:56:09.046Z,38.60
2018-11-26T02:58:38.415Z,32.50
2018-11-26T03:01:07.982Z,30.10
2018-11-26T03:03:37.345Z,33.40
2018-11-26T03:06:07.408Z,35.33
2018-11-26T03:08:36.809Z,31.87
2018-11-26T03:11:07.097Z,39.03
2018-11-26T03:13:36.616Z,35.27
2018-11-26T03:16:06.603Z,33.30
2018-11-26T03:18:36.257Z,38.20
2018-11-26T03:21:05.854Z,38.90
2018-11-26T03:23:35.339Z,32.93
2018-11-26T03:26:04.911Z,31.10
2018-11-26T03:28:34.634Z,37.63
2018-11-26T03:31:03.937Z,37.67
2018-11-26T03:33:33.433Z,35.23
2018-11-26T03:36:02.902Z,34.40
2018-11-26T03:39:05.270Z,42.00
2018-11-26T03:41:34.836Z,29.87
2018-11-26T03:44:04.352Z,32.17
2018-11-26T03:46:34.325Z,26.63
2018-11-26T03:49:03.858Z,28.23
2018-11-26T03:51:33.521Z,26.00
2018-11-26T03:54:03.283Z,28.60
2018-11-26T03:56:32.763Z,27.63
2018-11-26T03:59:02.544Z,30.67
2018-11-26T04:01:32.207Z,32.10
2018-11-26T04:04:01.648Z,28.07
2018-11-26T04:06:31.019Z,25.93
2018-11-26T04:09:00.805Z,26.13
2018-11-26T04:11:30.691Z,31.50
2018-11-26T04:14:00.423Z,30.50
2018-11-26T04:16:30.106Z,37.23
2018-11-26T04:18:59.567Z,26.90
2018-11-26T04:21:29.316Z,33.93
2018-11-26T04:23:58.796Z,32.10
2018-11-26T04:26:28.534Z,31.77
2018-11-26T04:28:58.408Z,33.27
2018-11-26T04:31:28.099Z,32.30
2018-11-26T04:33:57.440Z,29.73
2018-11-26T04:36:26.771Z,29.80
2018-11-26T04:38:56.179Z,26.43
2018-11-26T04:41:26.110Z,28.77
2018-11-26T04:43:55.589Z,31.37
2018-11-26T04:46:25.159Z,29.00
2018-11-26T04:48:54.743Z,30.20
2018-11-26T04:51:24.373Z,25.40
2018-11-26T04:53:54.155Z,26.83
2018-11-26T04:56:23.752Z,30.73
2018-11-26T04:58:53.355Z,29.03
2018-11-26T05:01:23.178Z,25.70
2018-11-26T05:03:52.591Z,27.90
2018-11-26T05:06:22.154Z,28.23
2018-11-26T05:08:51.451Z,28.27
2018-11-26T05:11:20.968Z,26.90
2018-11-26T05:13:50.932Z,30.30
2018-11-26T05:16:20.366Z,29.70
2018-11-26T05:18:50.056Z,28.80
2018-11-26T05:21:19.854Z,32.07
2018-11-26T05:23:49.332Z,26.13
2018-11-26T05:26:19.072Z,27.30
2018-11-26T05:28:48.860Z,27.23
2018-11-26T05:31:18.643Z,22.70
2018-11-26T05:33:49.011Z,22.97
2018-11-26T05:36:18.410Z,24.80
2018-11-26T05:38:47.724Z,28.47
2018-11-26T05:41:17.757Z,31.20
2018-11-26T05:43:47.340Z,30.07
2018-11-26T05:46:17.267Z,27.37
2018-11-26T05:48:46.643Z,28.03
2018-11-26T05:51:15.943Z,30.17
2018-11-26T05:53:45.778Z,29.37
2018-11-26T05:56:15.344Z,28.57
2018-11-26T05:58:44.786Z,35.70
2018-11-26T06:01:14.727Z,38.40
2018-11-26T06:03:44.007Z,30.37
2018-11-26T06:06:13.683Z,36.87
2018-11-26T06:08:43.067Z,34.00
2018-11-26T06:11:12.389Z,32.10
2018-11-26T06:13:42.379Z,36.70
2018-11-26T06:16:12.282Z,33.60
2018-11-26T06:18:42.415Z,37.70
2018-11-26T06:21:12.279Z,40.90
2018-11-26T06:23:42.199Z,37.20
2018-11-26T06:26:11.912Z,36.13
2018-11-26T06:28:41.961Z,33.57
2018-11-26T06:31:11.745Z,35.97
2018-11-26T06:33:41.811Z,32.27
2018-11-26T06:36:11.207Z,32.00
2018-11-26T06:38:40.545Z,38.40
2018-11-26T06:41:10.143Z,37.27
2018-11-26T06:43:40.091Z,36.10
2018-11-26T06:46:09.899Z,43.30
2018-11-26T06:48:39.481Z,43.63
2018-11-26T06:51:09.124Z,33.93
2018-11-26T06:53:38.522Z,42.97
2018-11-26T06:56:08.466Z,32.03
2018-11-26T06:58:38.228Z,30.43
2018-11-26T07:01:08.405Z,30.87
2018-11-26T07:03:37.923Z,28.70
2018-11-26T07:06:08.076Z,25.60
2018-11-26T07:08:37.399Z,26.10
2018-11-26T07:11:06.933Z,35.23
2018-11-26T07:13:37.030Z,36.83
2018-11-26T07:16:06.959Z,33.77
2018-11-26T07:18:36.698Z,33.60
2018-11-26T07:21:06.934Z,29.37
2018-11-26T07:23:36.427Z,30.63
2018-11-26T07:26:05.950Z,30.63
2018-11-26T07:28:35.815Z,34.43
2018-11-26T07:31:05.649Z,30.53
2018-11-26T07:33:35.199Z,36.77
2018-11-26T07:36:11.200Z,32.50
2018-11-26T07:38:34.418Z,29.07
2018-11-26T07:41:04.244Z,30.33
2018-11-26T07:43:33.785Z,23.10
2018-11-26T07:46:03.478Z,24.53
2018-11-26T07:48:32.968Z,28.00
2018-11-26T07:51:02.868Z,27.07
2018-11-26T07:53:32.835Z,30.47
2018-11-26T07:56:02.363Z,41.73
2018-11-26T07:58:31.871Z,30.83
2018-11-26T08:01:02.156Z,29.47
2018-11-26T08:03:31.650Z,28.73
2018-11-26T08:06:01.221Z,23.17
2018-11-26T08:08:30.845Z,25.87
2018-11-26T08:11:00.229Z,25.10
2018-11-26T08:13:29.518Z,22.17
2018-11-26T08:15:59.013Z,24.60
2018-11-26T08:18:28.785Z,26.13
2018-11-26T08:20:58.138Z,24.57
2018-11-26T08:23:27.975Z,25.80
2018-11-26T08:25:57.819Z,28.50
2018-11-26T08:28:27.392Z,25.77
2018-11-26T08:30:57.331Z,25.47
2018-11-26T08:33:26.831Z,28.37
2018-11-26T08:36:01.651Z,21.40
2018-11-26T08:39:37.113Z,22.63
2018-11-26T08:42:11.748Z,25.77
2018-11-26T08:44:41.200Z,21.93
2018-11-26T08:47:15.883Z,24.10
2018-11-26T08:49:45.492Z,30.80
2018-11-26T08:52:15.443Z,24.50
2018-11-26T08:54:44.932Z,23.60
2018-11-26T08:57:14.479Z,23.00
2018-11-26T08:59:44.246Z,30.50
2018-11-26T09:02:13.764Z,23.77
2018-11-26T09:04:52.688Z,25.93
2018-11-26T09:07:22.337Z,25.23
2018-11-26T09:09:51.723Z,25.13
2018-11-26T09:12:21.466Z,28.90
2018-11-26T09:14:50.723Z,24.70
2018-11-26T09:17:20.232Z,24.13
2018-11-26T09:19:50.240Z,25.70
2018-11-26T09:22:19.821Z,29.20
2018-11-26T09:24:49.427Z,30.17
2018-11-26T09:27:19.138Z,45.63
2018-11-26T09:29:48.708Z,46.70
2018-11-26T09:32:18.173Z,34.77
2018-11-26T09:34:48.187Z,27.27
2018-11-26T09:37:17.767Z,21.33
2018-11-26T09:39:47.130Z,23.33
2018-11-26T09:42:16.925Z,19.10
2018-11-26T09:44:46.345Z,22.63
2018-11-26T09:47:15.784Z,25.40
2018-11-26T09:49:45.219Z,27.80
2018-11-26T09:52:14.955Z,30.40
2018-11-26T09:54:44.637Z,24.83
2018-11-26T09:57:14.143Z,26.27
2018-11-26T09:59:43.878Z,27.20
2018-11-26T10:02:13.615Z,33.63
2018-11-26T10:04:43.558Z,27.50
2018-11-26T10:07:13.163Z,25.50
2018-11-26T10:09:42.441Z,21.47
2018-11-26T10:12:12.252Z,30.20
2018-11-26T10:14:41.560Z,30.53
2018-11-26T10:17:10.987Z,23.90
2018-11-26T10:19:40.768Z,23.47
2018-11-26T10:22:10.248Z,30.20
2018-11-26T10:24:40.179Z,32.07
2018-11-26T10:27:09.747Z,27.10
2018-11-26T10:29:40.483Z,27.60
2018-11-26T10:32:10.459Z,31.27
2018-11-26T10:34:40.167Z,33.50
2018-11-26T10:37:09.706Z,31.60
2018-11-26T10:39:39.152Z,39.40
2018-11-26T10:42:08.571Z,39.47
2018-11-26T10:44:37.988Z,35.17
2018-11-26T10:47:07.704Z,42.60
2018-11-26T10:49:37.109Z,28.63
2018-11-26T10:52:06.824Z,26.60
2018-11-26T10:54:36.802Z,27.63
2018-11-26T10:57:06.999Z,23.37
2018-11-26T10:59:36.823Z,21.30
2018-11-26T11:02:11.572Z,23.07
2018-11-26T11:04:47.462Z,24.53
2018-11-26T11:07:11.248Z,24.87
2018-11-26T11:09:41.115Z,18.23
2018-11-26T11:12:16.094Z,19.70
2018-11-26T11:14:45.951Z,17.30
2018-11-26T11:17:15.219Z,20.33
2018-11-26T11:19:44.592Z,27.13
2018-11-26T11:22:14.659Z,20.37
2018-11-26T11:24:44.413Z,24.67
2018-11-26T11:27:14.370Z,35.20
2018-11-26T11:29:44.000Z,21.17
2018-11-26T11:32:13.681Z,24.33
2018-11-26T11:34:44.093Z,28.40
2018-11-26T11:37:13.715Z,23.90
2018-11-26T11:39:43.492Z,19.90
2018-11-26T11:42:12.908Z,18.57
2018-11-26T11:44:42.501Z,21.20
2018-11-26T11:47:11.863Z,18.77
2018-11-26T11:49:41.285Z,17.57
2018-11-26T11:52:10.789Z,18.00
2018-11-26T11:54:40.554Z,20.17
2018-11-26T11:57:09.994Z,22.93
2018-11-26T11:59:39.726Z,14.43
2018-11-26T12:02:16.053Z,30.03
2018-11-26T12:04:42.137Z,20.17
2018-11-26T12:07:11.651Z,19.03
2018-11-26T12:09:41.170Z,18.30
2018-11-26T12:12:10.724Z,15.33
2018-11-26T12:14:40.656Z,18.43
2018-11-26T12:17:09.977Z,22.60
2018-11-26T12:19:39.408Z,18.47
2018-11-26T12:22:08.714Z,34.30
2018-11-26T12:24:38.138Z,21.97
2018-11-26T12:27:07.695Z,25.80
2018-11-26T12:29:37.376Z,30.33
2018-11-26T12:32:07.332Z,33.93
2018-11-26T12:34:37.021Z,23.80
2018-11-26T12:37:06.980Z,24.43
2018-11-26T12:39:36.759Z,24.33
2018-11-26T12:42:06.517Z,27.23
2018-11-26T12:44:51.944Z,27.97
2018-11-26T12:47:21.337Z,22.70
2018-11-26T12:49:50.668Z,26.30
2018-11-26T12:52:20.010Z,26.77
2018-11-26T12:54:49.628Z,26.53
2018-11-26T12:57:19.191Z,29.63
2018-11-26T12:59:48.784Z,28.50
2018-11-26T13:02:18.353Z,23.53
2018-11-26T13:04:47.781Z,27.40
2018-11-26T13:07:17.659Z,18.73
2018-11-26T13:09:47.459Z,21.60
2018-11-26T13:12:17.024Z,23.17
2018-11-26T13:14:46.611Z,25.30
2018-11-26T13:17:16.109Z,19.43
2018-11-26T13:19:45.429Z,25.70
2018-11-26T13:22:14.732Z,16.87
2018-11-26T13:24:44.291Z,29.17
2018-11-26T13:27:14.232Z,20.00
2018-11-26T13:29:43.772Z,21.77
2018-11-26T13:32:13.372Z,22.13
2018-11-26T13:34:43.070Z,22.80
2018-11-26T13:37:12.703Z,18.63
2018-11-26T13:39:42.265Z,22.73
2018-11-26T13:42:11.871Z,23.53
2018-11-26T13:44:41.143Z,25.47
2018-11-26T13:47:10.625Z,15.57
2018-11-26T13:49:40.197Z,25.10
2018-11-26T13:52:09.501Z,28.67
2018-11-26T13:54:38.823Z,19.80
2018-11-26T13:57:08.650Z,26.10
2018-11-26T13:59:38.449Z,36.77
2018-11-26T14:02:08.072Z,29.77
2018-11-26T14:04:37.774Z,23.57
2018-11-26T14:07:07.395Z,26.03
2018-11-26T14:09:36.960Z,31.53
2018-11-26T14:12:06.739Z,20.80
2018-11-26T14:14:36.600Z,22.63
2018-11-26T14:17:06.441Z,33.47
2018-11-26T14:19:35.968Z,24.87
2018-11-26T14:22:05.518Z,10.83
2018-11-26T14:24:34.889Z,5.67
2018-11-26T14:27:04.496Z,4.80
2018-11-26T14:29:34.224Z,2.93
2018-11-26T14:32:04.016Z,3.17
2018-11-26T14:34:34.545Z,4.97
2018-11-26T14:37:04.338Z,9.50
2018-11-26T14:39:34.109Z,28.77
2018-11-26T14:42:03.855Z,30.33
2018-11-26T14:44:33.510Z,31.57
2018-11-26T14:47:03.020Z,27.33
2018-11-26T14:49:32.857Z,28.80
2018-11-26T14:52:02.254Z,40.90
2018-11-26T14:54:31.639Z,36.87
2018-11-26T14:57:01.305Z,34.63
2018-11-26T14:59:31.272Z,37.13
2018-11-26T15:02:00.672Z,35.03
2018-11-26T15:04:30.429Z,16.17
2018-11-26T15:06:59.876Z,18.17
2018-11-26T15:09:29.625Z,19.87
2018-11-26T15:11:59.452Z,4.23
2018-11-26T15:14:29.004Z,7.83
2018-11-26T15:16:58.999Z,9.33
2018-11-26T15:19:28.732Z,3.57
2018-11-26T15:21:58.053Z,7.37
2018-11-26T15:24:27.977Z,12.23
2018-11-26T15:26:57.812Z,25.63
2018-11-26T15:29:27.523Z,6.47
2018-11-26T15:31:57.177Z,11.00
2018-11-26T15:34:27.061Z,5.37
2018-11-26T15:36:56.733Z,2.50
2018-11-26T15:39:26.102Z,7.10
2018-11-26T15:41:55.836Z,4.07
2018-11-26T15:44:25.303Z,5.07
2018-11-26T15:46:54.928Z,2.23
2018-11-26T15:49:24.308Z,5.10
2018-11-26T15:51:53.777Z,3.90
2018-11-26T15:54:23.380Z,2.50
2018-11-26T15:56:52.765Z,3.80
2018-11-26T15:59:22.437Z,4.63
2018-11-26T16:01:51.977Z,2.93
2018-11-26T16:04:21.570Z,5.77
2018-11-26T16:06:50.951Z,5.97
2018-11-26T16:09:20.485Z,4.70
2018-11-26T16:11:49.969Z,6.37
2018-11-26T16:14:19.404Z,9.73
2018-11-26T16:16:49.230Z,7.43
2018-11-26T16:19:18.545Z,4.20
2018-11-26T16:21:47.977Z,6.00
2018-11-26T16:24:17.538Z,7.03
2018-11-26T16:26:47.496Z,4.87
2018-11-26T16:29:17.101Z,9.63
2018-11-26T16:31:46.507Z,4.73
2018-11-26T16:34:15.932Z,3.57
2018-11-26T16:36:45.534Z,5.63
2018-11-26T16:39:15.085Z,16.50
2018-11-26T16:41:44.627Z,10.37
2018-11-26T16:44:14.252Z,5.43
2018-11-26T16:46:43.774Z,4.63
2018-11-26T16:49:13.273Z,6.60
2018-11-26T16:51:42.699Z,5.60
2018-11-26T16:54:13.187Z,5.37
2018-11-26T16:56:42.546Z,4.53
2018-11-26T16:59:12.205Z,2.70
2018-11-26T17:01:41.853Z,5.87
2018-11-26T17:04:11.464Z,5.33
2018-11-26T17:06:41.049Z,5.27
2018-11-26T17:09:11.255Z,7.77
2018-11-26T17:11:40.770Z,6.23
2018-11-26T17:14:10.535Z,6.33
2018-11-26T17:16:40.314Z,3.53
2018-11-26T17:19:09.748Z,5.80
2018-11-26T17:21:39.454Z,3.00
2018-11-26T17:24:08.910Z,7.33
2018-11-26T17:26:38.477Z,5.33
2018-11-26T17:29:08.058Z,2.87
2018-11-26T17:31:37.668Z,6.30
2018-11-26T17:34:07.571Z,4.93
2018-11-26T17:36:37.249Z,29.67
2018-11-26T17:39:09.514Z,35.47
2018-11-26T17:41:39.120Z,30.30
2018-11-26T17:44:08.650Z,37.20
2018-11-26T17:46:38.173Z,24.87
2018-11-26T17:49:07.606Z,24.40
2018-11-26T17:51:37.173Z,34.93
2018-11-26T17:54:06.713Z,32.57
2018-11-26T17:56:36.124Z,41.77
2018-11-26T17:59:06.084Z,44.90
2018-11-26T18:01:38.527Z,39.43
2018-11-26T18:04:08.789Z,43.17
2018-11-26T18:06:38.361Z,52.07
2018-11-26T18:09:11.448Z,42.97
2018-11-26T18:11:41.287Z,43.17
2018-11-26T18:14:10.929Z,37.37
2018-11-26T18:16:40.764Z,15.20
2018-11-26T18:19:10.192Z,27.00
2018-11-26T18:21:39.637Z,36.90
2018-11-26T18:24:08.948Z,40.87
2018-11-26T18:26:38.356Z,39.80
2018-11-26T18:29:08.821Z,35.10
2018-11-26T18:31:38.601Z,39.03
2018-11-26T18:34:08.592Z,34.97
2018-11-26T18:36:37.931Z,38.40
2018-11-26T18:39:10.147Z,36.80
2018-11-26T18:41:39.891Z,22.13
2018-11-26T18:44:09.650Z,25.80
2018-11-26T18:46:39.181Z,25.43
2018-11-26T18:49:08.892Z,37.93
2018-11-26T18:51:38.208Z,21.60
2018-11-26T18:54:07.694Z,23.97
2018-11-26T18:56:37.265Z,34.67
2018-11-26T18:59:07.020Z,10.70
2018-11-26T19:01:36.729Z,15.23
2018-11-26T19:04:06.648Z,4.13
2018-11-26T19:06:36.427Z,6.03
2018-11-26T19:09:08.473Z,5.03
2018-11-26T19:11:37.853Z,4.40
2018-11-26T19:14:13.634Z,4.63
2018-11-26T19:16:48.089Z,4.40
2018-11-26T19:19:17.500Z,7.10
2018-11-26T19:21:47.041Z,4.43
2018-11-26T19:24:16.507Z,4.97
2018-11-26T19:26:46.333Z,4.37
2018-11-26T19:29:15.600Z,5.10
2018-11-26T19:31:45.136Z,3.93
2018-11-26T19:34:14.719Z,3.53
2018-11-26T19:36:44.368Z,2.70
2018-11-26T19:39:13.977Z,3.00
2018-11-26T19:41:43.462Z,5.43
2018-11-26T19:44:13.086Z,3.33
2018-11-26T19:46:42.638Z,3.60
2018-11-26T19:49:12.296Z,5.00
2018-11-26T19:51:41.628Z,7.93
2018-11-26T19:54:11.115Z,4.53
2018-11-26T19:56:40.787Z,13.87
2018-11-26T19:59:10.228Z,8.50
2018-11-26T20:01:39.810Z,26.53
2018-11-26T20:04:26.866Z,29.63
2018-11-26T20:06:56.406Z,35.77
2018-11-26T20:09:25.949Z,30.57
2018-11-26T20:11:55.465Z,26.17
2018-11-26T20:14:25.958Z,26.93
2018-11-26T20:16:54.589Z,29.67
2018-11-26T20:19:24.009Z,28.00
2018-11-26T20:21:53.326Z,30.43
2018-11-26T20:24:23.060Z,29.90
2018-11-26T20:26:52.992Z,27.40
2018-11-26T20:29:22.609Z,25.93
2018-11-26T20:31:52.262Z,26.30
2018-11-26T20:34:21.738Z,25.33
2018-11-26T20:36:51.060Z,26.97
2018-11-26T20:39:20.540Z,28.97
2018-11-26T20:41:49.962Z,21.87
2018-11-26T20:44:19.556Z,25.23
2018-11-26T20:46:49.231Z,21.87
2018-11-26T20:49:18.262Z,24.33
2018-11-26T20:51:47.696Z,23.03
2018-11-26T20:54:17.324Z,22.40
2018-11-26T20:56:47.141Z,26.83
2018-11-26T20:59:16.664Z,20.90
2018-11-26T21:01:46.799Z,28.00
2018-11-26T21:04:16.462Z,29.63
2018-11-26T21:06:46.575Z,33.00
2018-11-26T21:09:16.632Z,26.13
2018-11-26T21:11:46.358Z,23.07
2018-11-26T21:14:21.307Z,21.37
2018-11-26T21:16:46.174Z,24.83
2018-11-26T21:19:15.943Z,24.33
2018-11-26T21:21:45.776Z,21.37
2018-11-26T21:24:15.564Z,23.03
2018-11-26T21:26:45.404Z,23.67
2018-11-26T21:29:15.295Z,25.10
2018-11-26T21:31:45.184Z,27.00
2018-11-26T21:34:15.198Z,31.03
2018-11-26T21:36:45.130Z,27.73
2018-11-26T21:39:15.156Z,37.57
2018-11-26T21:41:45.116Z,42.80
2018-11-26T21:44:15.088Z,38.63
2018-11-26T21:46:44.607Z,35.80
2018-11-26T21:49:14.134Z,33.93
2018-11-26T21:51:43.664Z,22.77
2018-11-26T21:54:13.622Z,27.07
2018-11-26T21:56:43.625Z,21.97
2018-11-26T21:59:13.526Z,17.97
2018-11-26T22:01:43.442Z,17.53
2018-11-26T22:04:13.345Z,8.13
2018-11-26T22:06:43.396Z,18.37
2018-11-26T22:09:13.282Z,5.40
2018-11-26T22:11:43.274Z,3.57
2018-11-26T22:14:13.049Z,4.23
2018-11-26T22:16:42.532Z,5.77
2018-11-26T22:19:12.098Z,5.13
2018-11-26T22:21:41.640Z,6.03
2018-11-26T22:24:11.527Z,5.13
2018-11-26T22:26:41.560Z,4.90
2018-11-26T22:29:11.373Z,6.53
2018-11-26T22:31:41.392Z,6.53
2018-11-26T22:34:11.372Z,4.03
2018-11-26T22:36:41.359Z,6.30
2018-11-26T22:39:11.272Z,5.33
2018-11-26T22:41:40.838Z,7.93
2018-11-26T22:44:10.457Z,5.73
2018-11-26T22:46:40.165Z,4.37
2018-11-26T22:49:09.576Z,8.30
2018-11-26T22:51:39.128Z,4.50
2018-11-26T22:54:08.575Z,5.40
2018-11-26T22:56:38.117Z,6.80
2018-11-26T22:59:07.584Z,4.53
2018-11-26T23:01:37.226Z,4.87
2018-11-26T23:04:07.188Z,4.53
2018-11-26T23:06:36.912Z,1.87
2018-11-26T23:09:08.767Z,2.47
2018-11-26T23:11:38.712Z,3.13
2018-11-26T23:14:08.352Z,6.60
2018-11-26T23:16:37.656Z,2.17
2018-11-26T23:19:07.072Z,3.27
2018-11-26T23:21:36.442Z,2.53
2018-11-26T23:24:06.364Z,2.10
2018-11-26T23:26:36.072Z,1.50
2018-11-26T23:29:05.595Z,2.53
2018-11-26T23:31:35.129Z,2.03
2018-11-26T23:34:04.773Z,4.00
2018-11-26T23:36:34.308Z,2.20
2018-11-26T23:39:04.080Z,4.20
2018-11-26T23:41:33.768Z,2.23
2018-11-26T23:44:03.299Z,2.50
2018-11-26T23:46:32.539Z,2.43
2018-11-26T23:49:01.840Z,2.80
2018-11-26T23:51:31.199Z,3.50
2018-11-26T23:54:01.168Z,3.40
2018-11-26T23:56:30.832Z,3.47
2018-11-26T23:59:00.654Z,1.20
